createdAt,value
2022-09-26T00:00:09.926Z,10.83
2022-09-26T00:02:39.800Z,7.90
2022-09-26T00:05:07.678Z,12.20
2022-09-26T00:07:36.118Z,5.03
2022-09-26T00:10:03.245Z,9.90
2022-09-26T00:12:30.365Z,4.70
2022-09-26T00:14:57.613Z,6.50
2022-09-26T00:17:24.711Z,4.57
2022-09-26T00:19:51.807Z,4.10
2022-09-26T00:22:18.885Z,7.03
2022-09-26T00:24:47.327Z,5.37
2022-09-26T00:27:14.451Z,5.30
2022-09-26T00:29:41.546Z,4.40
2022-09-26T00:32:08.647Z,5.67
2022-09-26T00:34:35.722Z,9.73
2022-09-26T00:37:02.865Z,8.90
2022-09-26T00:39:29.993Z,5.50
2022-09-26T00:41:58.446Z,8.80
2022-09-26T00:44:46.742Z,12.20
2022-09-26T00:47:23.016Z,8.60
2022-09-26T00:49:51.667Z,6.13
2022-09-26T00:52:20.358Z,10.57
2022-09-26T00:54:49.341Z,8.93
2022-09-26T00:57:19.588Z,8.23
2022-09-26T00:59:49.553Z,13.93
2022-09-26T01:02:17.786Z,10.30
2022-09-26T01:04:46.152Z,9.43
2022-09-26T01:07:21.522Z,10.20
2022-09-26T01:09:49.103Z,6.93
2022-09-26T01:12:18.030Z,10.60
2022-09-26T01:14:45.573Z,8.90
2022-09-26T01:17:12.758Z,10.50
2022-09-26T01:19:45.602Z,9.77
2022-09-26T01:22:22.828Z,13.63
2022-09-26T01:24:55.092Z,9.90
2022-09-26T01:27:44.713Z,14.23
2022-09-26T01:30:14.719Z,10.93
2022-09-26T01:32:58.201Z,11.87
2022-09-26T01:35:28.879Z,11.27
2022-09-26T01:38:00.368Z,10.27
2022-09-26T01:40:30.913Z,10.03
2022-09-26T01:43:03.460Z,10.97
2022-09-26T01:45:35.792Z,16.13
2022-09-26T01:48:06.041Z,16.00
2022-09-26T01:50:37.741Z,8.10
2022-09-26T01:53:08.583Z,9.17
2022-09-26T01:55:38.077Z,7.60
2022-09-26T01:58:07.154Z,12.93
2022-09-26T02:00:37.048Z,8.70
2022-09-26T02:03:06.281Z,10.73
2022-09-26T02:05:36.092Z,5.83
2022-09-26T02:08:05.624Z,10.70
2022-09-26T02:10:35.129Z,11.83
2022-09-26T02:13:05.674Z,10.13
2022-09-26T02:15:34.987Z,16.30
2022-09-26T02:18:06.575Z,10.10
2022-09-26T02:20:35.870Z,12.37
2022-09-26T02:23:03.941Z,9.70
2022-09-26T02:25:31.268Z,11.80
2022-09-26T02:27:58.576Z,14.60
2022-09-26T02:30:26.350Z,13.73
2022-09-26T02:32:53.513Z,9.40
2022-09-26T02:35:24.567Z,9.90
2022-09-26T02:37:53.214Z,10.40
2022-09-26T02:40:23.826Z,13.47
2022-09-26T02:42:57.016Z,7.70
2022-09-26T02:45:27.122Z,8.03
2022-09-26T02:47:59.721Z,11.30
2022-09-26T02:50:40.003Z,12.07
2022-09-26T02:53:13.083Z,11.80
2022-09-26T02:55:51.997Z,9.20
2022-09-26T02:58:21.434Z,19.93
2022-09-26T03:00:52.632Z,18.37
2022-09-26T03:03:23.257Z,8.87
2022-09-26T03:05:54.144Z,12.30
2022-09-26T03:08:23.722Z,7.97
2022-09-26T03:10:52.135Z,11.67
2022-09-26T03:13:19.957Z,17.30
2022-09-26T03:15:49.335Z,20.80
2022-09-26T03:18:19.390Z,9.27
2022-09-26T03:20:46.655Z,14.73
2022-09-26T03:23:15.169Z,10.70
2022-09-26T03:25:44.159Z,12.87
2022-09-26T03:28:14.380Z,13.63
2022-09-26T03:30:41.553Z,11.27
2022-09-26T03:33:28.654Z,12.07
2022-09-26T03:35:56.367Z,16.33
2022-09-26T03:38:24.837Z,14.47
2022-09-26T03:41:01.914Z,14.17
2022-09-26T03:43:47.940Z,10.80
2022-09-26T03:46:15.272Z,12.90
2022-09-26T03:48:42.402Z,11.30
2022-09-26T03:51:10.967Z,14.37
2022-09-26T03:53:40.115Z,17.07
2022-09-26T03:56:11.150Z,12.30
2022-09-26T03:58:38.644Z,12.90
2022-09-26T04:01:06.424Z,12.37
2022-09-26T04:03:34.435Z,11.00
2022-09-26T04:06:01.899Z,15.17
2022-09-26T04:08:29.161Z,10.00
2022-09-26T04:11:02.138Z,15.07
2022-09-26T04:13:49.967Z,11.43
2022-09-26T04:16:16.624Z,11.30
2022-09-26T04:18:51.147Z,13.30
2022-09-26T04:21:18.315Z,10.90
2022-09-26T04:23:45.448Z,12.10
2022-09-26T04:26:18.699Z,8.63
2022-09-26T04:28:49.113Z,7.50
2022-09-26T04:31:16.393Z,9.07
2022-09-26T04:33:50.964Z,11.47
2022-09-26T04:36:18.475Z,10.83
2022-09-26T04:38:46.417Z,12.73
2022-09-26T04:41:17.946Z,10.33
2022-09-26T04:43:45.366Z,10.07
2022-09-26T04:46:18.576Z,9.47
2022-09-26T04:48:50.034Z,10.87
2022-09-26T04:51:20.509Z,11.77
2022-09-26T04:53:48.985Z,18.40
2022-09-26T04:56:21.462Z,11.20
2022-09-26T04:58:48.644Z,12.03
2022-09-26T05:01:17.500Z,12.50
2022-09-26T05:04:10.816Z,13.73
2022-09-26T05:06:38.013Z,14.93
2022-09-26T05:09:06.293Z,14.57
2022-09-26T05:11:54.472Z,11.67
2022-09-26T05:14:21.678Z,15.37
2022-09-26T05:16:49.845Z,10.57
2022-09-26T05:19:17.807Z,11.13
2022-09-26T05:22:07.825Z,10.00
2022-09-26T05:24:35.086Z,10.20
2022-09-26T05:27:05.974Z,14.13
2022-09-26T05:29:33.289Z,11.23
2022-09-26T05:32:04.425Z,21.80
2022-09-26T05:34:36.104Z,15.83
2022-09-26T05:37:04.303Z,11.13
2022-09-26T05:39:32.390Z,9.53
2022-09-26T05:41:59.872Z,9.20
2022-09-26T05:44:28.421Z,10.40
2022-09-26T05:46:55.804Z,10.80
2022-09-26T05:49:22.977Z,12.50
2022-09-26T05:51:50.132Z,8.47
2022-09-26T05:54:18.567Z,12.33
2022-09-26T05:56:45.988Z,13.77
2022-09-26T05:59:40.580Z,12.60
2022-09-26T06:02:30.615Z,9.60
2022-09-26T06:05:16.333Z,11.10
2022-09-26T06:08:09.209Z,10.70
2022-09-26T06:10:39.533Z,10.27
2022-09-26T06:13:07.282Z,7.70
2022-09-26T06:15:42.978Z,12.00
2022-09-26T06:18:10.103Z,9.67
2022-09-26T06:20:38.327Z,9.43
2022-09-26T06:23:05.450Z,12.87
2022-09-26T06:25:33.310Z,7.00
2022-09-26T06:28:02.543Z,7.53
2022-09-26T06:30:30.802Z,8.23
2022-09-26T06:33:19.576Z,7.17
2022-09-26T06:36:01.307Z,4.80
2022-09-26T06:38:33.683Z,10.73
2022-09-26T06:41:01.074Z,8.20
2022-09-26T06:43:28.406Z,5.90
2022-09-26T06:46:15.250Z,9.60
2022-09-26T06:48:54.500Z,4.10
2022-09-26T06:51:39.874Z,8.20
2022-09-26T06:54:07.591Z,6.17
2022-09-26T06:56:34.744Z,4.73
2022-09-26T06:59:01.860Z,5.77
2022-09-26T07:01:34.105Z,5.87
2022-09-26T07:04:20.936Z,6.40
2022-09-26T07:06:59.275Z,3.67
2022-09-26T07:09:27.325Z,7.27
2022-09-26T07:12:14.287Z,11.63
2022-09-26T07:14:42.855Z,6.83
2022-09-26T07:17:21.286Z,5.20
2022-09-26T07:20:09.697Z,5.30
2022-09-26T07:23:03.614Z,6.73
2022-09-26T07:25:31.111Z,5.27
2022-09-26T07:27:59.944Z,7.10
2022-09-26T07:30:45.920Z,5.37
2022-09-26T07:33:19.439Z,7.50
2022-09-26T07:35:50.925Z,10.13
2022-09-26T07:38:19.346Z,3.30
2022-09-26T07:40:47.758Z,6.50
2022-09-26T07:43:20.189Z,11.83
2022-09-26T07:45:51.592Z,9.07
2022-09-26T07:48:18.878Z,7.27
2022-09-26T07:51:09.378Z,6.60
2022-09-26T07:53:44.028Z,6.10
2022-09-26T07:56:33.677Z,5.90
2022-09-26T07:59:18.004Z,9.30
2022-09-26T08:01:54.965Z,4.37
2022-09-26T08:04:33.405Z,3.33
2022-09-26T08:07:03.509Z,5.07
2022-09-26T08:09:32.099Z,7.20
2022-09-26T08:12:19.510Z,7.27
2022-09-26T08:15:02.802Z,3.97
2022-09-26T08:17:38.662Z,6.70
2022-09-26T08:20:06.385Z,6.80
2022-09-26T08:22:34.881Z,8.50
2022-09-26T08:25:01.972Z,7.30
2022-09-26T08:27:40.506Z,5.93
2022-09-26T08:30:08.180Z,3.03
2022-09-26T08:32:35.259Z,3.50
2022-09-26T08:35:03.232Z,4.37
2022-09-26T08:37:34.343Z,5.43
2022-09-26T08:40:29.165Z,4.27
2022-09-26T08:43:22.758Z,3.97
2022-09-26T08:46:12.033Z,4.23
2022-09-26T08:49:06.252Z,3.50
2022-09-26T08:51:36.307Z,5.83
2022-09-26T08:54:08.894Z,6.27
2022-09-26T08:56:37.341Z,4.53
2022-09-26T08:59:05.971Z,6.40
2022-09-26T09:01:37.571Z,4.90
2022-09-26T09:04:26.877Z,3.80
2022-09-26T09:06:57.915Z,2.70
2022-09-26T09:09:26.457Z,6.70
2022-09-26T09:12:27.101Z,5.03
2022-09-26T09:15:27.261Z,3.00
2022-09-26T09:18:13.604Z,3.53
2022-09-26T09:21:14.032Z,2.30
2022-09-26T09:24:09.735Z,6.47
2022-09-26T09:29:41.083Z,4.10
2022-09-26T09:32:28.480Z,3.90
2022-09-26T09:35:12.710Z,3.30
2022-09-26T09:37:52.695Z,7.60
2022-09-26T09:40:38.556Z,2.80
2022-09-26T09:43:11.588Z,8.30
2022-09-26T09:45:41.991Z,5.50
2022-09-26T09:48:11.272Z,8.60
2022-09-26T09:50:45.094Z,5.73
2022-09-26T09:53:19.764Z,4.07
2022-09-26T09:55:53.821Z,5.50
2022-09-26T09:58:39.302Z,3.07
2022-09-26T10:01:08.736Z,4.47
2022-09-26T10:03:39.318Z,4.37
2022-09-26T10:06:09.457Z,5.63
2022-09-26T10:08:54.142Z,4.93
2022-09-26T10:11:52.359Z,5.20
2022-09-26T10:14:43.190Z,5.30
2022-09-26T10:17:29.273Z,4.90
2022-09-26T10:20:31.510Z,5.10
2022-09-26T10:22:59.080Z,7.57
2022-09-26T10:25:29.413Z,4.10
2022-09-26T10:27:57.282Z,5.03
2022-09-26T10:30:29.293Z,5.40
2022-09-26T10:33:03.911Z,9.83
2022-09-26T10:36:09.695Z,6.40
2022-09-26T10:38:49.111Z,4.20
2022-09-26T10:41:23.102Z,4.80
2022-09-26T10:43:53.091Z,8.57
2022-09-26T10:46:43.360Z,5.10
2022-09-26T10:49:32.297Z,7.53
2022-09-26T10:52:22.555Z,6.50
2022-09-26T10:54:53.415Z,4.87
2022-09-26T10:57:22.206Z,6.97
2022-09-26T10:59:49.475Z,2.90
2022-09-26T11:02:21.839Z,4.40
2022-09-26T11:04:49.653Z,6.90
2022-09-26T11:07:50.604Z,6.17
2022-09-26T11:10:33.169Z,4.13
2022-09-26T11:13:17.380Z,13.80
2022-09-26T11:15:52.941Z,3.60
2022-09-26T11:18:26.720Z,7.63
2022-09-26T11:20:55.756Z,4.30
2022-09-26T11:23:29.013Z,6.23
2022-09-26T11:25:59.502Z,3.63
2022-09-26T11:28:29.373Z,5.87
2022-09-26T11:31:22.921Z,9.07
2022-09-26T11:34:03.501Z,4.50
2022-09-26T11:36:54.610Z,4.77
2022-09-26T11:39:33.042Z,3.07
2022-09-26T11:42:05.453Z,4.80
2022-09-26T11:44:40.751Z,5.37
2022-09-26T11:47:33.623Z,3.43
2022-09-26T11:50:12.706Z,5.17
2022-09-26T11:53:16.590Z,3.90
2022-09-26T11:55:52.583Z,3.73
2022-09-26T11:58:23.158Z,4.30
2022-09-26T12:00:53.009Z,4.10
2022-09-26T12:03:38.922Z,3.57
2022-09-26T12:06:13.107Z,3.80
2022-09-26T12:08:50.346Z,3.67
2022-09-26T12:11:22.866Z,4.50
2022-09-26T12:13:55.135Z,3.97
2022-09-26T12:16:25.200Z,3.13
2022-09-26T12:18:56.654Z,4.43
2022-09-26T12:21:32.120Z,4.27
2022-09-26T12:24:02.609Z,3.20
2022-09-26T12:26:32.758Z,1.80
2022-09-26T12:29:08.956Z,1.60
2022-09-26T12:31:50.696Z,2.50
2022-09-26T12:34:23.964Z,3.30
2022-09-26T12:37:02.471Z,4.30
2022-09-26T12:39:38.485Z,6.53
2022-09-26T12:42:14.093Z,5.67
2022-09-26T12:44:48.930Z,1.70
2022-09-26T12:47:22.353Z,2.57
2022-09-26T12:50:05.582Z,3.60
2022-09-26T12:52:41.938Z,6.10
2022-09-26T12:55:14.939Z,2.10
2022-09-26T12:57:45.809Z,2.63
2022-09-26T13:00:16.026Z,2.40
2022-09-26T13:02:51.000Z,3.40
2022-09-26T13:05:30.329Z,4.37
2022-09-26T13:08:04.088Z,4.00
2022-09-26T13:10:36.627Z,4.20
2022-09-26T13:13:18.618Z,3.00
2022-09-26T13:15:52.681Z,2.40
2022-09-26T13:18:26.363Z,11.97
2022-09-26T13:20:55.866Z,3.30
2022-09-26T13:23:28.192Z,3.13
2022-09-26T13:25:56.920Z,5.30
2022-09-26T13:28:26.110Z,4.03
2022-09-26T13:30:55.390Z,4.17
2022-09-26T13:33:25.940Z,2.87
2022-09-26T13:35:53.847Z,4.77
2022-09-26T13:38:33.693Z,4.63
2022-09-26T13:41:03.849Z,2.60
2022-09-26T13:43:42.794Z,4.07
2022-09-26T13:46:13.146Z,3.63
2022-09-26T13:48:43.512Z,8.63
2022-09-26T13:51:16.202Z,2.27
2022-09-26T13:53:47.623Z,3.53
2022-09-26T13:56:33.396Z,6.97
2022-09-26T13:59:04.339Z,6.00
2022-09-26T14:01:31.563Z,6.73
2022-09-26T14:04:13.707Z,5.83
2022-09-26T14:07:00.843Z,5.23
2022-09-26T14:09:40.178Z,4.77
2022-09-26T14:12:32.350Z,7.20
2022-09-26T14:15:14.347Z,4.90
2022-09-26T14:18:02.475Z,6.90
2022-09-26T14:20:30.444Z,5.43
2022-09-26T14:22:58.083Z,7.17
2022-09-26T14:25:49.338Z,5.00
2022-09-26T14:28:23.202Z,9.70
2022-09-26T14:31:09.219Z,6.10
2022-09-26T14:33:36.373Z,3.43
2022-09-26T14:36:33.711Z,6.03
2022-09-26T14:39:01.288Z,4.77
2022-09-26T14:41:29.635Z,5.20
2022-09-26T14:44:02.254Z,7.33
2022-09-26T14:46:30.494Z,3.50
2022-09-26T14:48:58.534Z,7.27
2022-09-26T14:51:27.758Z,4.10
2022-09-26T14:53:57.381Z,5.23
2022-09-26T14:56:31.507Z,10.30
2022-09-26T14:59:13.512Z,6.93
2022-09-26T15:01:42.742Z,6.30
2022-09-26T15:04:14.104Z,13.00
2022-09-26T15:06:44.165Z,10.33
2022-09-26T15:09:12.123Z,5.13
2022-09-26T15:11:42.229Z,8.90
2022-09-26T15:14:15.209Z,5.67
2022-09-26T15:16:47.172Z,9.17
2022-09-26T15:19:15.295Z,7.40
2022-09-26T15:21:43.919Z,16.70
2022-09-26T15:24:24.164Z,5.80
2022-09-26T15:26:51.391Z,7.50
2022-09-26T15:29:18.573Z,9.13
2022-09-26T15:31:47.115Z,7.50
2022-09-26T15:34:15.370Z,7.80
2022-09-26T15:36:43.786Z,12.30
2022-09-26T15:39:36.680Z,8.00
2022-09-26T15:42:11.374Z,10.40
2022-09-26T15:44:45.368Z,8.57
2022-09-26T15:47:25.444Z,8.63
2022-09-26T15:50:02.485Z,8.60
2022-09-26T15:52:30.200Z,10.20
2022-09-26T15:54:57.300Z,10.63
2022-09-26T15:57:24.437Z,8.03
2022-09-26T15:59:51.549Z,8.20
2022-09-26T16:02:22.753Z,7.53
2022-09-26T16:04:50.662Z,11.50
2022-09-26T16:07:19.416Z,12.70
2022-09-26T16:09:47.631Z,7.10
2022-09-26T16:12:18.363Z,8.47
2022-09-26T16:14:46.399Z,8.10
2022-09-26T16:17:20.545Z,10.73
2022-09-26T16:19:50.272Z,6.17
2022-09-26T16:22:30.958Z,13.03
2022-09-26T16:25:02.818Z,5.87
2022-09-26T16:27:34.307Z,7.73
2022-09-26T16:30:05.299Z,7.63
2022-09-26T16:32:32.815Z,6.33
2022-09-26T16:35:10.941Z,7.20
2022-09-26T16:37:38.110Z,7.17
2022-09-26T16:40:05.594Z,6.37
2022-09-26T16:42:32.753Z,8.40
2022-09-26T16:45:03.475Z,10.63
2022-09-26T16:47:33.418Z,9.37
2022-09-26T16:50:15.418Z,9.30
2022-09-26T16:52:44.154Z,10.03
2022-09-26T16:55:11.252Z,7.73
2022-09-26T16:57:39.309Z,12.10
2022-09-26T17:00:09.022Z,8.47
2022-09-26T17:02:36.143Z,11.97
2022-09-26T17:05:03.282Z,11.03
2022-09-26T17:07:30.380Z,13.27
2022-09-26T17:09:58.819Z,9.43
2022-09-26T17:12:25.908Z,12.03
2022-09-26T17:14:53.039Z,9.63
2022-09-26T17:17:22.128Z,9.33
2022-09-26T17:19:53.140Z,15.00
2022-09-26T17:22:23.396Z,9.80
2022-09-26T17:24:51.145Z,13.77
2022-09-26T17:27:21.207Z,11.20
2022-09-26T17:29:49.116Z,8.70
2022-09-26T17:32:17.752Z,12.03
2022-09-26T17:34:45.214Z,9.43
2022-09-26T17:37:14.179Z,16.63
2022-09-26T17:39:41.282Z,9.90
2022-09-26T17:42:08.365Z,8.10
2022-09-26T17:44:36.824Z,9.23
2022-09-26T17:47:05.144Z,13.03
2022-09-26T17:49:33.021Z,10.47
2022-09-26T17:52:01.637Z,17.60
2022-09-26T17:54:30.105Z,7.60
2022-09-26T17:56:57.592Z,10.13
2022-09-26T17:59:25.750Z,11.47
2022-09-26T18:01:55.632Z,6.17
2022-09-26T18:04:24.319Z,5.37
2022-09-26T18:06:51.597Z,4.80
2022-09-26T18:09:19.338Z,8.40
2022-09-26T18:11:49.176Z,5.03
2022-09-26T18:14:16.281Z,4.30
2022-09-26T18:16:43.516Z,7.63
2022-09-26T18:19:11.965Z,10.80
2022-09-26T18:21:39.147Z,8.80
2022-09-26T18:24:07.442Z,4.30
2022-09-26T18:26:36.222Z,5.30
2022-09-26T18:29:05.307Z,5.17
2022-09-26T18:31:33.894Z,3.43
2022-09-26T18:34:01.080Z,2.80
2022-09-26T18:36:30.245Z,3.93
2022-09-26T18:38:57.373Z,3.60
2022-09-26T18:41:24.954Z,3.57
2022-09-26T18:43:52.221Z,4.70
2022-09-26T18:46:19.625Z,4.77
2022-09-26T18:48:47.113Z,5.47
2022-09-26T18:51:14.610Z,5.00
2022-09-26T18:53:43.049Z,4.93
2022-09-26T18:56:10.879Z,11.70
2022-09-26T18:58:37.966Z,4.90
2022-09-26T19:01:06.305Z,4.70
2022-09-26T19:03:34.355Z,4.10
2022-09-26T19:06:03.585Z,3.30
2022-09-26T19:08:31.888Z,5.97
2022-09-26T19:11:00.481Z,5.07
2022-09-26T19:13:27.829Z,3.03
2022-09-26T19:15:55.065Z,4.43
2022-09-26T19:18:22.202Z,5.53
2022-09-26T19:20:49.522Z,2.70
2022-09-26T19:23:16.645Z,3.20
2022-09-26T19:25:43.762Z,2.93
2022-09-26T19:28:14.897Z,3.63
2022-09-26T19:30:42.086Z,3.13
2022-09-26T19:33:10.028Z,2.83
2022-09-26T19:35:38.013Z,5.37
2022-09-26T19:38:12.194Z,2.93
2022-09-26T19:40:39.337Z,3.63
2022-09-26T19:43:06.485Z,2.80
2022-09-26T19:45:35.098Z,5.97
2022-09-26T19:48:03.252Z,4.70
2022-09-26T19:50:32.477Z,3.20
2022-09-26T19:52:59.566Z,4.00
2022-09-26T19:55:27.818Z,4.07
2022-09-26T19:57:56.583Z,4.70
2022-09-26T20:00:23.672Z,6.67
2022-09-26T20:02:52.571Z,14.40
2022-09-26T20:05:20.836Z,9.30
2022-09-26T20:07:48.033Z,13.60
2022-09-26T20:10:16.505Z,11.00
2022-09-26T20:12:43.640Z,13.67
2022-09-26T20:15:11.998Z,10.80
2022-09-26T20:17:40.258Z,19.03
2022-09-26T20:20:12.158Z,10.30
2022-09-26T20:22:40.305Z,15.77
2022-09-26T20:25:08.189Z,13.70
2022-09-26T20:27:35.292Z,7.63
2022-09-26T20:30:02.381Z,9.17
2022-09-26T20:32:29.503Z,6.80
2022-09-26T20:34:56.625Z,15.60
2022-09-26T20:37:25.332Z,16.63
2022-09-26T20:39:52.455Z,7.20
2022-09-26T20:42:19.635Z,12.33
2022-09-26T20:44:48.195Z,10.20
2022-09-26T20:47:17.806Z,12.23
2022-09-26T20:49:47.012Z,5.93
2022-09-26T20:52:18.039Z,11.67
2022-09-26T20:54:46.537Z,8.20
2022-09-26T20:57:13.706Z,6.40
2022-09-26T20:59:40.812Z,13.70
2022-09-26T21:02:21.270Z,9.70
2022-09-26T21:04:48.452Z,10.87
2022-09-26T21:07:15.904Z,11.30
2022-09-26T21:09:43.124Z,17.00
2022-09-26T21:12:13.364Z,11.13
2022-09-26T21:14:40.552Z,13.23
2022-09-26T21:17:15.761Z,20.93
2022-09-26T21:19:42.937Z,19.00
2022-09-26T21:22:30.018Z,13.23
2022-09-26T21:24:57.180Z,16.13
2022-09-26T21:27:25.749Z,19.57
2022-09-26T21:29:52.882Z,18.30
2022-09-26T21:32:20.700Z,18.60
2022-09-26T21:34:52.437Z,24.70
2022-09-26T21:37:19.550Z,17.00
2022-09-26T21:39:46.686Z,21.70
2022-09-26T21:42:13.808Z,17.77
2022-09-26T21:44:45.218Z,12.83
2022-09-26T21:47:12.353Z,13.53
2022-09-26T21:49:39.458Z,16.87
2022-09-26T21:52:08.171Z,16.63
2022-09-26T21:54:38.886Z,26.40
2022-09-26T21:57:08.000Z,16.23
2022-09-26T21:59:36.373Z,14.17
2022-09-26T22:02:04.915Z,13.03
2022-09-26T22:04:32.118Z,19.93
2022-09-26T22:06:59.201Z,15.30
2022-09-26T22:09:26.331Z,19.83
2022-09-26T22:11:53.421Z,13.30
2022-09-26T22:14:20.517Z,12.23
2022-09-26T22:16:47.674Z,15.43
2022-09-26T22:19:16.353Z,12.07
2022-09-26T22:21:43.555Z,15.90
2022-09-26T22:24:10.690Z,13.10
2022-09-26T22:26:37.837Z,10.80
2022-09-26T22:29:04.953Z,17.93
2022-09-26T22:31:32.032Z,14.50
2022-09-26T22:33:59.729Z,12.27
2022-09-26T22:36:28.519Z,12.63
2022-09-26T22:38:55.600Z,18.70
2022-09-26T22:41:22.733Z,10.87
2022-09-26T22:43:49.843Z,9.23
2022-09-26T22:46:16.966Z,12.80
2022-09-26T22:48:44.948Z,18.27
2022-09-26T22:51:12.394Z,21.17
2022-09-26T22:53:41.357Z,14.53
2022-09-26T22:56:09.709Z,13.60
2022-09-26T22:58:37.860Z,15.20
2022-09-26T23:01:05.684Z,13.63
2022-09-26T23:03:32.883Z,9.20
2022-09-26T23:06:00.251Z,11.00
2022-09-26T23:08:27.359Z,13.03
2022-09-26T23:10:56.338Z,13.90
2022-09-26T23:13:25.090Z,17.40
2022-09-26T23:15:52.230Z,19.40
2022-09-26T23:18:19.584Z,12.50
2022-09-26T23:20:46.697Z,14.03
2022-09-26T23:23:14.542Z,13.03
2022-09-26T23:25:45.866Z,14.50
2022-09-26T23:28:14.446Z,11.33
2022-09-26T23:30:41.831Z,9.30
2022-09-26T23:33:08.978Z,13.20
2022-09-26T23:35:36.447Z,7.83
2022-09-26T23:38:05.289Z,9.90
2022-09-26T23:40:32.828Z,9.40
2022-09-26T23:43:00.147Z,13.17
2022-09-26T23:45:28.626Z,16.53
2022-09-26T23:47:55.745Z,9.63
2022-09-26T23:50:22.878Z,11.10
2022-09-26T23:52:50.004Z,9.60
2022-09-26T23:55:17.245Z,18.23
2022-09-26T23:57:44.343Z,11.33
